createdAt,value
2019-05-02T00:01:01.264Z,99.90
2019-05-02T00:03:35.982Z,99.90
2019-05-02T00:06:09.322Z,99.90
2019-05-02T00:08:40.857Z,99.90
2019-05-02T00:11:13.367Z,99.90
2019-05-02T00:13:45.360Z,99.90
2019-05-02T00:16:17.007Z,99.90
2019-05-02T00:18:48.285Z,99.90
2019-05-02T00:21:20.328Z,99.90
2019-05-02T00:23:51.625Z,99.90
2019-05-02T00:26:24.538Z,99.90
2019-05-02T00:28:56.356Z,99.90
2019-05-02T00:31:28.053Z,99.90
2019-05-02T00:33:59.415Z,99.90
2019-05-02T00:36:30.772Z,99.90
2019-05-02T00:39:02.566Z,99.90
2019-05-02T00:41:38.447Z,99.90
2019-05-02T00:44:11.074Z,99.90
2019-05-02T00:46:42.085Z,99.90
2019-05-02T00:49:13.580Z,99.90
2019-05-02T00:51:45.016Z,99.90
2019-05-02T00:54:19.145Z,99.90
2019-05-02T00:56:49.579Z,99.90
2019-05-02T00:59:20.878Z,99.90
2019-05-02T01:02:00.087Z,99.90
2019-05-02T01:04:36.854Z,99.90
2019-05-02T01:07:09.224Z,99.90
2019-05-02T01:09:42.118Z,99.90
2019-05-02T01:12:25.803Z,99.90
2019-05-02T01:14:46.583Z,99.90
2019-05-02T01:17:18.249Z,99.90
2019-05-02T01:19:51.504Z,99.90
2019-05-02T01:22:23.042Z,99.90
2019-05-02T01:24:54.739Z,99.90
2019-05-02T01:27:41.144Z,99.90
2019-05-02T01:30:30.260Z,99.90
2019-05-02T01:33:07.846Z,99.90
2019-05-02T01:35:50.841Z,99.90
2019-05-02T01:38:31.801Z,99.90
2019-05-02T01:41:04.033Z,99.90
2019-05-02T01:43:35.708Z,99.90
2019-05-02T01:46:07.160Z,99.90
2019-05-02T01:48:40.023Z,99.90
2019-05-02T01:51:12.135Z,99.90
2019-05-02T01:53:43.526Z,99.90
2019-05-02T01:56:15.213Z,99.90
2019-05-02T01:58:47.080Z,99.90
2019-05-02T02:01:21.391Z,99.90
2019-05-02T02:03:51.837Z,99.90
2019-05-02T02:06:23.317Z,99.90
2019-05-02T02:08:55.067Z,99.90
2019-05-02T02:11:28.499Z,99.90
2019-05-02T02:13:59.559Z,99.90
2019-05-02T02:16:35.228Z,99.90
2019-05-02T02:19:22.182Z,99.90
2019-05-02T02:22:23.644Z,99.90
2019-05-02T02:25:14.301Z,99.90
2019-05-02T02:27:45.517Z,99.90
2019-05-02T02:30:17.892Z,99.90
2019-05-02T02:32:50.376Z,99.90
2019-05-02T02:35:21.791Z,99.90
2019-05-02T02:37:55.712Z,99.90
2019-05-02T02:40:32.785Z,99.90
2019-05-02T02:43:12.791Z,99.90
2019-05-02T02:46:09.505Z,99.90
2019-05-02T02:48:42.671Z,99.90
2019-05-02T02:51:22.165Z,99.90
2019-05-02T02:53:47.389Z,99.90
2019-05-02T02:56:18.882Z,99.90
2019-05-02T02:58:50.163Z,99.90
2019-05-02T03:01:28.723Z,99.90
2019-05-02T03:03:54.902Z,99.90
2019-05-02T03:06:26.491Z,99.90
2019-05-02T03:08:57.917Z,99.90
2019-05-02T03:11:35.124Z,99.90
2019-05-02T03:14:12.723Z,99.90
2019-05-02T03:16:47.117Z,99.90
2019-05-02T03:19:21.089Z,99.90
2019-05-02T03:21:54.251Z,99.90
2019-05-02T03:24:27.984Z,99.90
2019-05-02T03:26:59.396Z,99.90
2019-05-02T03:29:41.129Z,99.90
2019-05-02T03:32:14.997Z,99.90
2019-05-02T03:34:47.547Z,99.90
2019-05-02T03:37:13.854Z,99.90
2019-05-02T03:39:49.546Z,99.90
2019-05-02T03:42:18.058Z,99.90
2019-05-02T03:44:56.989Z,99.90
2019-05-02T03:47:23.039Z,99.90
2019-05-02T03:49:54.478Z,99.90
2019-05-02T03:52:25.982Z,99.90
2019-05-02T03:54:57.583Z,99.90
2019-05-02T03:57:33.387Z,99.90
2019-05-02T04:00:02.844Z,99.90
2019-05-02T04:02:35.329Z,99.90
2019-05-02T04:05:07.018Z,99.90
2019-05-02T04:07:40.843Z,99.90
2019-05-02T04:10:20.182Z,99.90
2019-05-02T04:12:53.238Z,99.90
2019-05-02T04:15:20.589Z,99.90
2019-05-02T04:17:54.678Z,99.90
2019-05-02T04:20:26.294Z,99.90
2019-05-02T04:23:06.794Z,99.90
2019-05-02T04:25:38.418Z,99.90
2019-05-02T04:28:12.055Z,99.90
2019-05-02T04:30:45.132Z,99.90
2019-05-02T04:33:16.159Z,99.90
2019-05-02T04:35:47.595Z,99.90
2019-05-02T04:38:21.421Z,99.90
2019-05-02T04:40:52.409Z,99.90
2019-05-02T04:43:28.592Z,99.90
2019-05-02T04:46:00.132Z,99.90
2019-05-02T04:48:34.551Z,99.90
2019-05-02T04:51:10.285Z,99.90
2019-05-02T04:53:44.360Z,99.90
2019-05-02T04:56:12.489Z,99.90
2019-05-02T04:58:44.300Z,99.90
2019-05-02T05:01:15.664Z,99.90
2019-05-02T05:03:49.263Z,99.90
2019-05-02T05:06:20.170Z,99.90
2019-05-02T05:08:51.691Z,99.90
2019-05-02T05:11:24.959Z,99.90
2019-05-02T05:13:58.992Z,99.90
2019-05-02T05:16:28.855Z,99.90
2019-05-02T05:19:00.224Z,99.90
2019-05-02T05:21:31.535Z,99.90
2019-05-02T05:24:24.875Z,99.90
2019-05-02T05:26:57.818Z,99.90
2019-05-02T05:29:31.164Z,99.90
2019-05-02T05:32:07.855Z,99.90
2019-05-02T05:34:37.990Z,99.90
2019-05-02T05:37:13.434Z,99.90
2019-05-02T05:39:47.940Z,99.90
2019-05-02T05:42:17.815Z,99.90
2019-05-02T05:44:50.560Z,99.90
2019-05-02T05:47:21.739Z,99.90
2019-05-02T05:49:57.590Z,99.90
2019-05-02T05:52:28.269Z,99.90
2019-05-02T05:55:00.115Z,99.90
2019-05-02T05:57:31.420Z,99.90
2019-05-02T06:00:11.938Z,99.90
2019-05-02T06:02:52.349Z,99.90
2019-05-02T06:05:10.707Z,99.90
2019-05-02T06:07:44.947Z,99.90
2019-05-02T06:10:15.386Z,99.90
2019-05-02T06:12:47.249Z,99.90
2019-05-02T06:15:18.797Z,99.90
2019-05-02T06:17:50.065Z,99.90
2019-05-02T06:20:25.758Z,99.90
2019-05-02T06:22:59.549Z,99.90
2019-05-02T06:25:34.160Z,99.90
2019-05-02T06:28:05.319Z,99.90
2019-05-02T06:30:34.319Z,99.90
2019-05-02T06:33:06.705Z,99.90
2019-05-02T06:35:38.542Z,99.90
2019-05-02T06:38:09.838Z,99.90
2019-05-02T06:40:44.713Z,99.90
2019-05-02T06:43:15.453Z,99.90
2019-05-02T06:45:46.951Z,99.90
2019-05-02T06:48:19.112Z,99.90
2019-05-02T06:50:51.012Z,99.90
2019-05-02T06:53:24.013Z,99.90
2019-05-02T06:55:55.718Z,99.90
2019-05-02T06:58:27.110Z,99.90
2019-05-02T07:00:59.172Z,99.90
2019-05-02T07:03:30.821Z,99.90
2019-05-02T07:06:02.916Z,99.90
2019-05-02T07:08:35.739Z,99.90
2019-05-02T07:11:07.499Z,99.90
2019-05-02T07:13:41.877Z,99.90
2019-05-02T07:16:36.883Z,99.90
2019-05-02T07:19:16.254Z,99.90
2019-05-02T07:21:46.436Z,99.90
2019-05-02T07:24:17.797Z,99.90
2019-05-02T07:26:52.182Z,99.90
2019-05-02T07:29:23.152Z,99.90
2019-05-02T07:31:54.712Z,99.90
2019-05-02T07:34:26.129Z,99.90
2019-05-02T07:36:57.871Z,99.90
2019-05-02T07:39:29.545Z,99.90
2019-05-02T07:42:05.866Z,99.90
2019-05-02T07:44:34.549Z,99.90
2019-05-02T07:47:06.068Z,99.90
2019-05-02T07:49:37.916Z,98.60
2019-05-02T07:52:09.351Z,99.30
2019-05-02T07:54:40.707Z,95.50
2019-05-02T07:57:12.786Z,95.00
2019-05-02T07:59:44.187Z,97.10
2019-05-02T08:02:15.658Z,94.10
2019-05-02T08:04:47.294Z,93.40
2019-05-02T08:07:21.124Z,93.90
2019-05-02T08:09:51.997Z,94.50
2019-05-02T08:12:23.405Z,92.20
2019-05-02T08:14:54.672Z,90.00
2019-05-02T08:17:26.184Z,93.30
2019-05-02T08:19:57.917Z,93.20
2019-05-02T08:22:29.221Z,85.30
2019-05-02T08:25:00.881Z,86.70
2019-05-02T08:27:48.458Z,84.70
2019-05-02T08:30:24.865Z,93.40
2019-05-02T08:32:56.396Z,86.40
2019-05-02T08:35:28.351Z,83.40
2019-05-02T08:38:00.244Z,86.10
2019-05-02T08:40:31.902Z,82.20
2019-05-02T08:43:08.625Z,85.70
2019-05-02T08:45:38.126Z,86.80
2019-05-02T08:48:09.720Z,75.60
2019-05-02T08:50:41.316Z,85.60
2019-05-02T08:53:14.271Z,70.00
2019-05-02T08:55:46.743Z,69.70
2019-05-02T08:58:18.509Z,74.80
2019-05-02T09:00:50.054Z,67.10
2019-05-02T09:03:21.554Z,67.50
2019-05-02T09:06:05.364Z,72.00
2019-05-02T09:08:28.854Z,66.10
2019-05-02T09:11:01.511Z,68.50
2019-05-02T09:13:33.144Z,68.30
2019-05-02T09:16:06.026Z,64.90
2019-05-02T09:18:42.384Z,68.70
2019-05-02T09:21:12.560Z,62.20
2019-05-02T09:23:44.397Z,59.10
2019-05-02T09:26:16.493Z,62.30
2019-05-02T09:28:48.668Z,59.60
2019-05-02T09:31:22.632Z,60.00
2019-05-02T09:33:55.687Z,60.30
2019-05-02T09:36:27.156Z,59.50
2019-05-02T09:38:58.551Z,58.50
2019-05-02T09:41:32.486Z,60.70
2019-05-02T09:44:09.006Z,64.00
2019-05-02T09:46:38.918Z,63.20
2019-05-02T09:49:15.763Z,56.10
2019-05-02T09:51:45.586Z,57.90
2019-05-02T09:54:23.034Z,59.50
2019-05-02T09:56:54.535Z,62.20
2019-05-02T09:59:33.122Z,55.80
2019-05-02T10:02:08.536Z,54.40
2019-05-02T10:04:43.494Z,56.70
2019-05-02T10:07:15.533Z,50.20
2019-05-02T10:09:46.987Z,54.40
2019-05-02T10:12:18.502Z,54.10
2019-05-02T10:14:50.161Z,51.30
2019-05-02T10:17:23.186Z,52.70
2019-05-02T10:19:57.109Z,53.40
2019-05-02T10:22:33.721Z,54.10
2019-05-02T10:25:02.563Z,50.80
2019-05-02T10:27:33.975Z,52.00
2019-05-02T10:30:11.763Z,51.70
2019-05-02T10:32:39.802Z,50.20
2019-05-02T10:35:14.768Z,49.90
2019-05-02T10:37:46.195Z,48.60
2019-05-02T10:40:17.700Z,47.60
2019-05-02T10:42:49.006Z,51.70
2019-05-02T10:45:22.408Z,52.20
2019-05-02T10:47:53.635Z,55.40
2019-05-02T10:50:29.435Z,55.70
2019-05-02T10:53:05.367Z,56.90
2019-05-02T10:55:33.874Z,58.50
2019-05-02T10:58:05.891Z,60.00
2019-05-02T11:00:38.978Z,60.00
2019-05-02T11:03:16.297Z,61.70
2019-05-02T11:05:52.862Z,62.00
2019-05-02T11:08:24.781Z,61.50
2019-05-02T11:10:57.408Z,60.00
2019-05-02T11:13:53.359Z,61.10
2019-05-02T11:16:37.115Z,61.40
2019-05-02T11:19:14.657Z,62.90
2019-05-02T11:21:55.337Z,63.30
2019-05-02T11:24:19.306Z,64.80
2019-05-02T11:26:52.684Z,65.40
2019-05-02T11:29:25.310Z,67.60
2019-05-02T11:31:56.759Z,69.00
2019-05-02T11:34:28.632Z,68.80
2019-05-02T11:37:01.747Z,69.40
2019-05-02T11:39:42.337Z,70.70
2019-05-02T11:42:06.923Z,72.80
2019-05-02T11:44:42.207Z,76.10
2019-05-02T11:47:17.316Z,75.90
2019-05-02T11:49:52.087Z,74.60
2019-05-02T11:52:22.556Z,74.00
2019-05-02T11:54:55.536Z,73.90
2019-05-02T11:57:30.699Z,73.80
2019-05-02T12:00:04.937Z,70.30
2019-05-02T12:02:58.246Z,70.40
2019-05-02T12:05:35.851Z,69.80
2019-05-02T12:08:12.201Z,70.70
2019-05-02T12:10:45.373Z,69.10
2019-05-02T12:13:17.210Z,68.80
2019-05-02T12:15:48.476Z,70.60
2019-05-02T12:18:23.158Z,66.80
2019-05-02T12:20:54.020Z,67.30
2019-05-02T12:23:25.304Z,62.90
2019-05-02T12:25:57.350Z,59.70
2019-05-02T12:28:32.358Z,59.70
2019-05-02T12:31:07.979Z,56.80
2019-05-02T12:33:42.530Z,54.90
2019-05-02T12:36:14.398Z,52.20
2019-05-02T12:38:47.034Z,52.00
2019-05-02T12:41:22.332Z,52.20
2019-05-02T12:43:52.477Z,52.70
2019-05-02T12:46:24.176Z,53.00
2019-05-02T12:48:56.099Z,53.60
2019-05-02T12:51:27.538Z,54.30
2019-05-02T12:53:58.989Z,55.50
2019-05-02T12:56:32.358Z,56.70
2019-05-02T12:59:05.364Z,57.90
2019-05-02T13:01:37.276Z,58.20
2019-05-02T13:04:12.456Z,58.20
2019-05-02T13:06:43.681Z,58.00
2019-05-02T13:09:15.096Z,54.30
2019-05-02T13:12:08.371Z,53.50
2019-05-02T13:14:39.739Z,51.60
2019-05-02T13:17:12.143Z,50.80
2019-05-02T13:19:55.803Z,47.60
2019-05-02T13:22:34.586Z,47.70
2019-05-02T13:25:12.934Z,47.20
2019-05-02T13:27:48.184Z,47.70
2019-05-02T13:30:42.872Z,47.90
2019-05-02T13:33:13.715Z,48.30
2019-05-02T13:35:48.609Z,48.00
2019-05-02T13:38:22.939Z,51.00
2019-05-02T13:40:54.662Z,51.20
2019-05-02T13:43:29.648Z,51.20
2019-05-02T13:46:14.711Z,49.80
2019-05-02T13:48:46.249Z,51.90
2019-05-02T13:51:17.588Z,51.60
2019-05-02T13:53:57.931Z,52.40
2019-05-02T13:56:52.796Z,52.20
2019-05-02T13:59:24.475Z,52.60
2019-05-02T14:01:55.978Z,51.50
2019-05-02T14:04:28.498Z,51.90
2019-05-02T14:07:00.233Z,50.90
2019-05-02T14:10:02.306Z,48.20
2019-05-02T14:12:58.128Z,47.90
2019-05-02T14:15:39.017Z,47.40
2019-05-02T14:18:12.420Z,48.10
2019-05-02T14:20:43.940Z,49.10
2019-05-02T14:23:15.295Z,50.30
2019-05-02T14:25:47.381Z,50.50
2019-05-02T14:28:19.015Z,52.70
2019-05-02T14:30:52.367Z,53.10
2019-05-02T14:33:25.267Z,53.50
2019-05-02T14:35:56.944Z,53.30
2019-05-02T14:38:28.292Z,53.80
2019-05-02T14:41:08.450Z,53.20
2019-05-02T14:43:52.581Z,51.00
2019-05-02T14:46:28.839Z,51.10
2019-05-02T14:48:59.216Z,50.60
2019-05-02T14:51:32.688Z,49.40
2019-05-02T14:54:08.210Z,51.30
2019-05-02T14:56:48.148Z,51.20
2019-05-02T14:59:20.223Z,51.40
2019-05-02T15:01:57.899Z,52.30
2019-05-02T15:04:28.382Z,50.10
2019-05-02T15:07:01.912Z,49.80
2019-05-02T15:09:36.109Z,50.50
2019-05-02T15:12:13.935Z,50.60
2019-05-02T15:14:40.029Z,50.60
2019-05-02T15:17:12.180Z,49.80
2019-05-02T15:19:43.772Z,49.60
2019-05-02T15:22:15.135Z,50.50
2019-05-02T15:24:46.342Z,52.90
2019-05-02T15:27:18.289Z,53.30
2019-05-02T15:29:53.938Z,53.60
2019-05-02T15:32:44.963Z,54.10
2019-05-02T15:35:31.775Z,54.10
2019-05-02T15:38:06.732Z,54.30
2019-05-02T15:40:48.123Z,55.30
2019-05-02T15:43:09.931Z,55.30
2019-05-02T15:45:44.150Z,55.90
2019-05-02T15:48:22.660Z,55.90
2019-05-02T15:50:52.122Z,56.00
2019-05-02T15:53:44.669Z,56.00
2019-05-02T15:56:20.013Z,57.40
2019-05-02T15:58:49.650Z,57.00
2019-05-02T16:01:32.166Z,57.00
2019-05-02T16:04:04.992Z,57.00
2019-05-02T16:06:36.405Z,57.70
2019-05-02T16:09:09.494Z,58.00
2019-05-02T16:11:43.462Z,58.30
2019-05-02T16:14:15.130Z,58.30
2019-05-02T16:16:46.409Z,57.10
2019-05-02T16:19:27.186Z,58.30
2019-05-02T16:22:08.955Z,58.20
2019-05-02T16:24:43.875Z,58.70
2019-05-02T16:27:16.415Z,58.90
2019-05-02T16:29:47.249Z,59.20
2019-05-02T16:32:37.889Z,59.50
2019-05-02T16:35:13.535Z,60.60
2019-05-02T16:37:46.698Z,59.70
2019-05-02T16:40:23.830Z,60.90
2019-05-02T16:42:51.854Z,61.40
2019-05-02T16:45:23.884Z,61.20
2019-05-02T16:48:00.328Z,60.70
2019-05-02T16:50:35.109Z,60.70
2019-05-02T16:53:02.403Z,59.90
2019-05-02T16:55:34.078Z,58.80
2019-05-02T16:58:07.273Z,58.20
2019-05-02T17:00:42.566Z,58.10
2019-05-02T17:03:12.729Z,59.20
2019-05-02T17:05:48.000Z,58.90
2019-05-02T17:08:27.423Z,59.90
2019-05-02T17:11:15.806Z,60.70
2019-05-02T17:13:47.292Z,60.70
2019-05-02T17:16:18.608Z,61.60
2019-05-02T17:18:52.977Z,63.30
2019-05-02T17:21:26.858Z,65.10
2019-05-02T17:23:56.550Z,65.50
2019-05-02T17:26:27.899Z,66.60
2019-05-02T17:28:59.261Z,67.50
2019-05-02T17:31:32.257Z,68.60
2019-05-02T17:34:03.672Z,70.00
2019-05-02T17:36:35.150Z,70.70
2019-05-02T17:39:08.664Z,73.60
2019-05-02T17:41:42.260Z,76.50
2019-05-02T17:44:18.513Z,77.70
2019-05-02T17:46:50.769Z,78.90
2019-05-02T17:49:23.918Z,80.90
2019-05-02T17:52:18.624Z,81.70
2019-05-02T17:54:44.460Z,82.60
2019-05-02T17:57:16.133Z,84.40
2019-05-02T17:59:47.680Z,85.50
2019-05-02T18:02:19.391Z,85.70
2019-05-02T18:04:52.143Z,86.40
2019-05-02T18:07:31.125Z,88.70
2019-05-02T18:09:57.177Z,88.80
2019-05-02T18:12:28.602Z,89.90
2019-05-02T18:15:01.407Z,89.90
2019-05-02T18:17:33.741Z,90.40
2019-05-02T18:20:06.740Z,89.80
2019-05-02T18:22:39.901Z,90.80
2019-05-02T18:25:16.269Z,92.40
2019-05-02T18:27:45.468Z,94.80
2019-05-02T18:30:26.717Z,99.90
2019-05-02T18:32:57.911Z,99.90
2019-05-02T18:35:28.434Z,99.90
2019-05-02T18:38:00.172Z,99.90
2019-05-02T18:40:32.144Z,99.90
2019-05-02T18:43:05.332Z,99.90
2019-05-02T18:45:37.001Z,99.90
2019-05-02T18:48:08.536Z,99.90
2019-05-02T18:50:46.946Z,99.90
2019-05-02T18:53:18.685Z,99.90
2019-05-02T18:55:51.887Z,99.90
2019-05-02T18:58:23.694Z,99.90
2019-05-02T19:00:55.353Z,99.90
2019-05-02T19:03:27.385Z,99.90
2019-05-02T19:06:02.143Z,99.90
2019-05-02T19:08:45.790Z,99.90
2019-05-02T19:11:12.628Z,99.90
2019-05-02T19:13:44.559Z,99.90
2019-05-02T19:16:19.267Z,99.90
2019-05-02T19:18:54.489Z,99.90
2019-05-02T19:21:26.435Z,99.90
2019-05-02T19:23:58.557Z,99.90
2019-05-02T19:26:30.202Z,99.90
2019-05-02T19:29:22.136Z,99.90
2019-05-02T19:31:54.862Z,99.90
2019-05-02T19:34:26.970Z,99.90
2019-05-02T19:37:03.091Z,99.90
2019-05-02T19:39:34.270Z,99.90
2019-05-02T19:42:06.448Z,99.90
2019-05-02T19:44:38.396Z,99.90
2019-05-02T19:47:15.703Z,99.90
2019-05-02T19:49:47.246Z,99.90
2019-05-02T19:52:16.182Z,99.90
2019-05-02T19:54:47.710Z,99.90
2019-05-02T19:57:24.753Z,99.90
2019-05-02T19:59:52.505Z,99.90
2019-05-02T20:02:23.995Z,99.90
2019-05-02T20:04:55.589Z,99.90
2019-05-02T20:07:27.185Z,99.90
2019-05-02T20:09:58.580Z,99.90
2019-05-02T20:12:30.105Z,99.90
2019-05-02T20:15:01.988Z,99.90
2019-05-02T20:17:33.187Z,99.90
2019-05-02T20:20:07.798Z,99.90
2019-05-02T20:22:40.973Z,99.90
2019-05-02T20:25:12.579Z,99.90
2019-05-02T20:27:44.350Z,99.90
2019-05-02T20:30:17.262Z,99.90
2019-05-02T20:32:48.539Z,99.90
2019-05-02T20:35:19.992Z,99.90
2019-05-02T20:37:52.569Z,99.90
2019-05-02T20:40:33.221Z,99.90
2019-05-02T20:43:05.587Z,99.90
2019-05-02T20:45:37.020Z,99.90
2019-05-02T20:48:08.513Z,99.90
2019-05-02T20:50:40.062Z,99.90
2019-05-02T20:53:12.831Z,99.90
2019-05-02T20:55:44.849Z,99.90
2019-05-02T20:58:16.216Z,99.90
2019-05-02T21:00:47.886Z,99.90
2019-05-02T21:03:19.175Z,99.90
2019-05-02T21:06:36.474Z,99.90
2019-05-02T21:09:18.656Z,99.90
2019-05-02T21:12:02.071Z,99.90
2019-05-02T21:14:35.720Z,99.90
2019-05-02T21:17:07.381Z,99.90
2019-05-02T21:19:38.730Z,99.90
2019-05-02T21:22:19.301Z,99.90
2019-05-02T21:24:52.694Z,99.90
2019-05-02T21:27:23.947Z,99.90
2019-05-02T21:29:55.412Z,99.90
2019-05-02T21:32:26.877Z,99.90
2019-05-02T21:34:58.374Z,99.90
2019-05-02T21:37:31.846Z,99.90
2019-05-02T21:40:02.995Z,99.90
2019-05-02T21:42:34.406Z,99.90
2019-05-02T21:45:06.222Z,99.90
2019-05-02T21:47:37.764Z,99.90
2019-05-02T21:50:25.104Z,99.90
2019-05-02T21:53:18.317Z,99.90
2019-05-02T21:55:59.654Z,99.90
2019-05-02T21:58:32.373Z,99.90
2019-05-02T22:01:09.838Z,99.90
2019-05-02T22:03:42.305Z,99.90
2019-05-02T22:06:14.752Z,99.90
2019-05-02T22:08:46.765Z,99.90
2019-05-02T22:11:18.152Z,99.90
2019-05-02T22:13:51.672Z,99.90
2019-05-02T22:16:23.043Z,99.90
2019-05-02T22:18:54.699Z,99.90
2019-05-02T22:21:26.394Z,99.90
2019-05-02T22:24:08.251Z,99.90
2019-05-02T22:26:32.741Z,99.90
2019-05-02T22:29:04.445Z,99.90
2019-05-02T22:31:35.982Z,99.90
2019-05-02T22:34:08.228Z,99.90
2019-05-02T22:36:39.606Z,99.90
2019-05-02T22:39:31.714Z,99.90
2019-05-02T22:42:04.697Z,99.90
2019-05-02T22:44:36.565Z,99.90
2019-05-02T22:47:08.934Z,99.90
2019-05-02T22:49:42.287Z,99.90
2019-05-02T22:52:14.394Z,99.90
2019-05-02T22:54:46.012Z,99.90
2019-05-02T22:57:17.423Z,99.90
2019-05-02T22:59:49.025Z,99.90
2019-05-02T23:02:21.977Z,99.90
2019-05-02T23:04:53.616Z,99.90
2019-05-02T23:07:25.625Z,99.90
2019-05-02T23:09:57.277Z,99.90
2019-05-02T23:12:28.625Z,99.90
2019-05-02T23:15:02.008Z,99.90
2019-05-02T23:17:33.679Z,99.90
2019-05-02T23:20:05.950Z,99.90
2019-05-02T23:22:38.117Z,99.90
2019-05-02T23:25:42.560Z,99.90
2019-05-02T23:28:17.798Z,99.90
2019-05-02T23:30:49.560Z,99.90
2019-05-02T23:33:23.395Z,99.90
2019-05-02T23:35:54.149Z,99.90
2019-05-02T23:38:25.878Z,99.90
2019-05-02T23:40:57.871Z,99.90
2019-05-02T23:43:29.293Z,99.90
2019-05-02T23:46:02.291Z,99.90
2019-05-02T23:48:33.660Z,99.90
2019-05-02T23:51:05.091Z,99.90
2019-05-02T23:53:36.483Z,99.90
2019-05-02T23:56:08.031Z,99.90
2019-05-02T23:58:39.488Z,99.90
